createdAt,value
2022-08-05T00:00:51.526Z,20.92
2022-08-05T00:01:53.096Z,20.85
2022-08-05T00:02:54.653Z,20.83
2022-08-05T00:03:57.142Z,20.80
2022-08-05T00:04:58.984Z,20.77
2022-08-05T00:06:06.609Z,20.71
2022-08-05T00:07:58.955Z,20.68
2022-08-05T00:08:44.751Z,20.63
2022-08-05T00:09:48.975Z,20.56
2022-08-05T00:10:50.407Z,20.51
2022-08-05T00:11:55.612Z,20.50
2022-08-05T00:12:57.757Z,20.58
2022-08-05T00:13:59.639Z,20.58
2022-08-05T00:15:54.550Z,20.58
2022-08-05T00:16:36.053Z,20.56
2022-08-05T00:17:38.098Z,20.55
2022-08-05T00:18:48.221Z,20.56
2022-08-05T00:20:01.903Z,20.52
2022-08-05T00:21:05.159Z,20.50
2022-08-05T00:22:11.357Z,20.48
2022-08-05T00:23:13.298Z,20.46
2022-08-05T00:24:18.868Z,20.45
2022-08-05T00:25:25.956Z,20.43
2022-08-05T00:26:51.699Z,20.43
2022-08-05T00:27:53.569Z,20.42
2022-08-05T00:28:56.909Z,20.43
2022-08-05T00:29:59.071Z,20.43
2022-08-05T00:31:07.712Z,20.45
2022-08-05T00:32:12.571Z,20.45
2022-08-05T00:34:56.630Z,20.42
2022-08-05T00:35:04.654Z,20.42
2022-08-05T00:36:16.049Z,20.45
2022-08-05T00:37:26.286Z,20.48
2022-08-05T00:38:28.851Z,20.49
2022-08-05T00:39:41.413Z,20.53
2022-08-05T00:40:53.384Z,20.50
2022-08-05T00:41:55.855Z,20.47
2022-08-05T00:42:59.948Z,20.45
2022-08-05T00:44:02.588Z,20.52
2022-08-05T00:45:08.541Z,20.64
2022-08-05T00:46:12.927Z,20.66
2022-08-05T00:47:16.465Z,20.64
2022-08-05T00:48:27.457Z,20.64
2022-08-05T00:49:44.640Z,20.68
2022-08-05T00:50:53.616Z,20.66
2022-08-05T00:51:55.083Z,20.56
2022-08-05T00:52:56.625Z,20.46
2022-08-05T00:54:02.578Z,20.41
2022-08-05T00:55:05.351Z,20.36
2022-08-05T00:56:07.832Z,20.34
2022-08-05T00:57:09.608Z,20.30
2022-08-05T00:58:12.352Z,20.25
2022-08-05T00:59:14.747Z,20.26
2022-08-05T01:00:25.286Z,20.22
2022-08-05T01:01:42.685Z,20.26
2022-08-05T01:02:50.157Z,20.21
2022-08-05T01:03:51.773Z,20.25
2022-08-05T01:04:53.259Z,20.23
2022-08-05T01:05:55.067Z,20.28
2022-08-05T01:06:56.581Z,20.30
2022-08-05T01:08:40.803Z,20.29
2022-08-05T01:09:20.209Z,20.28
2022-08-05T01:10:28.758Z,20.30
2022-08-05T01:11:37.449Z,20.29
2022-08-05T01:12:44.182Z,20.32
2022-08-05T01:14:42.543Z,20.34
2022-08-05T01:15:50.303Z,20.27
2022-08-05T01:17:29.721Z,20.27
2022-08-05T01:18:37.838Z,20.24
2022-08-05T01:20:01.317Z,20.20
2022-08-05T01:21:13.245Z,20.16
2022-08-05T01:22:58.532Z,20.11
2022-08-05T01:24:41.076Z,20.09
2022-08-05T01:26:11.731Z,19.82
2022-08-05T01:27:33.078Z,19.52
2022-08-05T01:28:43.638Z,19.63
2022-08-05T01:29:48.589Z,19.75
2022-08-05T01:31:01.031Z,19.87
2022-08-05T01:32:12.421Z,19.98
2022-08-05T01:33:25.182Z,20.04
2022-08-05T01:34:31.967Z,19.97
2022-08-05T01:35:51.621Z,19.88
2022-08-05T01:37:07.924Z,19.76
2022-08-05T01:38:14.633Z,19.80
2022-08-05T01:39:34.501Z,19.74
2022-08-05T01:40:48.896Z,19.76
2022-08-05T01:41:53.001Z,19.75
2022-08-05T01:42:57.877Z,19.64
2022-08-05T01:44:01.694Z,19.53
2022-08-05T01:45:08.253Z,19.42
2022-08-05T01:46:16.467Z,19.36
2022-08-05T01:47:39.033Z,19.35
2022-08-05T01:48:41.966Z,19.46
2022-08-05T01:50:01.552Z,19.46
2022-08-05T01:51:12.078Z,19.55
2022-08-05T01:52:18.074Z,19.55
2022-08-05T01:53:57.624Z,19.54
2022-08-05T01:54:48.405Z,19.52
2022-08-05T01:55:58.372Z,19.52
2022-08-05T01:58:12.558Z,19.56
2022-08-05T01:58:40.504Z,19.60
2022-08-05T01:59:49.183Z,19.63
2022-08-05T02:00:51.924Z,19.67
2022-08-05T02:01:56.686Z,19.71
2022-08-05T02:03:06.662Z,19.73
2022-08-05T02:04:28.303Z,19.75
2022-08-05T02:05:35.868Z,19.74
2022-08-05T02:06:39.340Z,19.73
2022-08-05T02:07:41.490Z,19.70
2022-08-05T02:08:58.254Z,19.63
2022-08-05T02:10:01.378Z,19.64
2022-08-05T02:11:08.283Z,19.65
2022-08-05T02:12:43.001Z,19.69
2022-08-05T02:13:54.097Z,19.73
2022-08-05T02:15:18.447Z,19.71
2022-08-05T02:16:31.477Z,19.73
2022-08-05T02:18:31.992Z,19.78
2022-08-05T02:19:08.859Z,19.82
2022-08-05T02:20:20.686Z,19.82
2022-08-05T02:21:28.223Z,19.87
2022-08-05T02:22:38.984Z,19.85
2022-08-05T02:23:47.694Z,19.86
2022-08-05T02:24:58.054Z,19.83
2022-08-05T02:26:04.848Z,19.82
2022-08-05T02:27:10.871Z,19.82
2022-08-05T02:28:14.188Z,19.83
2022-08-05T02:29:24.107Z,19.81
2022-08-05T02:30:32.522Z,19.76
2022-08-05T02:31:36.821Z,19.79
2022-08-05T02:32:39.863Z,19.84
2022-08-05T02:33:57.374Z,19.85
2022-08-05T02:35:13.389Z,19.86
2022-08-05T02:36:19.277Z,19.85
2022-08-05T02:37:22.140Z,19.85
2022-08-05T02:38:25.363Z,19.87
2022-08-05T02:39:34.773Z,19.86
2022-08-05T02:40:40.831Z,19.82
2022-08-05T02:41:58.232Z,19.72
2022-08-05T02:43:04.143Z,19.57
2022-08-05T02:44:13.158Z,19.43
2022-08-05T02:45:17.206Z,19.41
2022-08-05T02:46:20.635Z,19.38
2022-08-05T02:47:58.737Z,19.43
2022-08-05T02:48:54.878Z,19.38
2022-08-05T02:49:56.999Z,19.34
2022-08-05T02:51:03.745Z,19.35
2022-08-05T02:52:11.493Z,19.43
2022-08-05T02:53:19.114Z,19.53
2022-08-05T02:54:35.026Z,19.63
2022-08-05T02:55:54.885Z,19.73
2022-08-05T02:57:00.737Z,19.83
2022-08-05T02:58:12.113Z,19.86
2022-08-05T02:59:17.063Z,19.86
2022-08-05T03:00:20.079Z,19.78
2022-08-05T03:01:25.021Z,19.69
2022-08-05T03:02:31.518Z,19.57
2022-08-05T03:04:02.042Z,19.39
2022-08-05T03:04:58.104Z,19.48
2022-08-05T03:06:56.030Z,19.51
2022-08-05T03:07:59.436Z,19.28
2022-08-05T03:08:44.722Z,19.17
2022-08-05T03:09:51.595Z,19.17
2022-08-05T03:11:02.383Z,19.22
2022-08-05T03:12:31.003Z,19.15
2022-08-05T03:13:52.035Z,19.18
2022-08-05T03:14:54.022Z,19.18
2022-08-05T03:15:58.288Z,19.20
2022-08-05T03:17:00.327Z,19.22
2022-08-05T03:18:02.315Z,19.20
2022-08-05T03:19:12.647Z,19.24
2022-08-05T03:20:18.820Z,19.27
2022-08-05T03:21:20.575Z,19.22
2022-08-05T03:22:32.499Z,19.18
2022-08-05T03:23:35.835Z,19.09
2022-08-05T03:24:42.958Z,19.02
2022-08-05T03:26:04.803Z,18.97
2022-08-05T03:27:10.732Z,18.97
2022-08-05T03:28:14.553Z,18.98
2022-08-05T03:29:20.438Z,18.92
2022-08-05T03:30:30.203Z,18.91
2022-08-05T03:31:55.624Z,18.84
2022-08-05T03:32:58.856Z,18.84
2022-08-05T03:34:00.511Z,18.78
2022-08-05T03:35:04.585Z,18.77
2022-08-05T03:36:07.379Z,18.79
2022-08-05T03:37:13.727Z,18.78
2022-08-05T03:38:15.863Z,18.74
2022-08-05T03:39:20.220Z,18.74
2022-08-05T03:40:31.852Z,18.72
2022-08-05T03:41:45.208Z,18.64
2022-08-05T03:42:52.234Z,18.64
2022-08-05T03:44:09.829Z,18.64
2022-08-05T03:45:22.145Z,18.70
2022-08-05T03:46:26.772Z,18.73
2022-08-05T03:47:35.505Z,18.73
2022-08-05T03:48:42.833Z,18.76
2022-08-05T03:49:51.499Z,18.74
2022-08-05T03:52:39.019Z,18.66
2022-08-05T03:55:53.093Z,18.60
2022-08-05T03:56:03.758Z,18.54
2022-08-05T03:56:14.852Z,18.48
2022-08-05T03:57:42.553Z,18.41
2022-08-05T03:58:46.916Z,18.43
2022-08-05T03:59:57.054Z,18.42
2022-08-05T04:01:01.971Z,18.48
2022-08-05T04:02:06.408Z,18.52
2022-08-05T04:03:09.451Z,18.57
2022-08-05T04:04:30.619Z,18.64
2022-08-05T04:05:38.585Z,18.71
2022-08-05T04:06:42.788Z,18.75
2022-08-05T04:07:57.314Z,18.77
2022-08-05T04:09:01.571Z,18.79
2022-08-05T04:10:03.525Z,18.81
2022-08-05T04:11:07.159Z,18.87
2022-08-05T04:12:24.759Z,18.88
2022-08-05T04:13:49.863Z,18.91
2022-08-05T04:14:50.373Z,19.00
2022-08-05T04:15:52.624Z,19.01
2022-08-05T04:17:05.068Z,19.07
2022-08-05T04:18:09.380Z,19.08
2022-08-05T04:19:12.868Z,19.18
2022-08-05T04:20:23.313Z,19.23
2022-08-05T04:22:08.749Z,19.27
2022-08-05T04:22:46.632Z,19.33
2022-08-05T04:24:06.760Z,19.32
2022-08-05T04:25:10.844Z,19.38
2022-08-05T04:26:14.525Z,19.44
2022-08-05T04:27:19.168Z,19.49
2022-08-05T04:28:21.294Z,19.55
2022-08-05T04:29:32.601Z,19.55
2022-08-05T04:30:34.332Z,19.57
2022-08-05T04:31:38.441Z,19.64
2022-08-05T04:32:41.064Z,19.74
2022-08-05T04:34:19.200Z,19.79
2022-08-05T04:35:05.969Z,19.89
2022-08-05T04:36:11.186Z,19.96
2022-08-05T04:38:00.919Z,19.95
2022-08-05T04:38:51.128Z,19.99
2022-08-05T04:39:53.623Z,20.03
2022-08-05T04:40:57.257Z,20.08
2022-08-05T04:42:00.391Z,20.12
2022-08-05T04:43:04.437Z,20.13
2022-08-05T04:44:09.325Z,20.10
2022-08-05T04:45:11.315Z,20.14
2022-08-05T04:46:28.500Z,20.22
2022-08-05T04:47:30.125Z,20.26
2022-08-05T04:48:40.148Z,20.26
2022-08-05T04:50:03.080Z,20.19
2022-08-05T04:51:11.120Z,20.18
2022-08-05T04:52:13.030Z,20.24
2022-08-05T04:53:16.307Z,20.25
2022-08-05T04:54:17.783Z,20.29
2022-08-05T04:56:11.834Z,20.33
2022-08-05T04:56:40.685Z,20.36
2022-08-05T04:57:47.950Z,20.40
2022-08-05T04:58:52.916Z,20.44
2022-08-05T04:59:54.357Z,20.50
2022-08-05T05:00:55.870Z,20.46
2022-08-05T05:02:07.773Z,20.46
2022-08-05T05:03:20.387Z,20.45
2022-08-05T05:04:21.984Z,20.48
2022-08-05T05:05:28.556Z,20.48
2022-08-05T05:06:40.613Z,20.51
2022-08-05T05:07:56.285Z,20.56
2022-08-05T05:09:02.262Z,20.62
2022-08-05T05:10:07.299Z,20.62
2022-08-05T05:11:08.842Z,20.66
2022-08-05T05:12:10.320Z,20.74
2022-08-05T05:13:15.095Z,20.69
2022-08-05T05:14:16.576Z,20.69
2022-08-05T05:15:56.914Z,20.69
2022-08-05T05:16:39.595Z,20.69
2022-08-05T05:17:56.632Z,20.70
2022-08-05T05:19:18.920Z,20.74
2022-08-05T05:20:20.635Z,20.75
2022-08-05T05:21:22.070Z,20.74
2022-08-05T05:22:28.683Z,20.79
2022-08-05T05:23:30.226Z,20.74
2022-08-05T05:24:57.527Z,20.80
2022-08-05T05:25:59.740Z,20.80
2022-08-05T05:27:02.140Z,20.85
2022-08-05T05:28:03.956Z,20.89
2022-08-05T05:29:14.248Z,20.99
2022-08-05T05:30:30.991Z,21.09
2022-08-05T05:32:35.095Z,21.41
2022-08-05T05:33:58.946Z,21.60
2022-08-05T05:34:58.549Z,21.99
2022-08-05T05:36:00.018Z,22.31
2022-08-05T05:37:01.491Z,22.62
2022-08-05T05:38:09.334Z,22.89
2022-08-05T05:39:14.671Z,23.22
2022-08-05T05:40:26.098Z,23.44
2022-08-05T05:41:40.528Z,23.60
2022-08-05T05:42:46.977Z,23.74
2022-08-05T05:43:57.637Z,23.92
2022-08-05T05:45:03.070Z,24.08
2022-08-05T05:46:05.267Z,24.26
2022-08-05T05:47:13.171Z,24.40
2022-08-05T05:48:27.376Z,24.60
2022-08-05T05:49:29.250Z,24.60
2022-08-05T05:50:32.224Z,24.59
2022-08-05T05:51:35.613Z,24.68
2022-08-05T05:52:51.700Z,24.82
2022-08-05T05:53:57.321Z,24.90
2022-08-05T05:55:01.177Z,25.01
2022-08-05T05:56:03.445Z,25.08
2022-08-05T05:57:05.053Z,25.08
2022-08-05T05:58:15.086Z,25.21
2022-08-05T05:59:16.775Z,25.22
2022-08-05T06:00:20.812Z,25.22
2022-08-05T06:01:37.945Z,25.30
2022-08-05T06:02:41.051Z,25.34
2022-08-05T06:04:00.537Z,25.21
2022-08-05T06:05:03.792Z,25.12
2022-08-05T06:06:12.148Z,25.23
2022-08-05T06:07:13.648Z,25.27
2022-08-05T06:08:15.536Z,25.26
2022-08-05T06:09:52.672Z,25.28
2022-08-05T06:10:55.796Z,25.24
2022-08-05T06:12:01.442Z,25.22
2022-08-05T06:13:03.763Z,25.11
2022-08-05T06:14:05.242Z,25.16
2022-08-05T06:15:08.135Z,25.26
2022-08-05T06:16:28.517Z,25.08
2022-08-05T06:17:31.287Z,25.16
2022-08-05T06:18:32.746Z,25.17
2022-08-05T06:19:38.578Z,25.25
2022-08-05T06:20:40.040Z,25.22
2022-08-05T06:21:41.766Z,25.21
2022-08-05T06:22:50.822Z,25.19
2022-08-05T06:23:52.312Z,25.29
2022-08-05T06:24:53.815Z,25.39
2022-08-05T06:26:13.878Z,25.36
2022-08-05T06:27:17.321Z,25.43
2022-08-05T06:28:38.236Z,25.53
2022-08-05T06:29:46.813Z,25.57
2022-08-05T06:30:53.631Z,25.59
2022-08-05T06:31:56.740Z,25.64
2022-08-05T06:33:01.213Z,25.65
2022-08-05T06:34:08.062Z,25.67
2022-08-05T06:35:22.094Z,25.70
2022-08-05T06:36:45.986Z,25.68
2022-08-05T06:37:57.686Z,25.76
2022-08-05T06:39:00.492Z,25.89
2022-08-05T06:40:02.455Z,26.01
2022-08-05T06:41:05.352Z,26.09
2022-08-05T06:42:09.551Z,26.18
2022-08-05T06:43:57.506Z,26.19
2022-08-05T06:44:35.462Z,26.24
2022-08-05T06:45:44.507Z,26.36
2022-08-05T06:46:58.503Z,26.45
2022-08-05T06:48:36.901Z,26.48
2022-08-05T06:50:01.371Z,26.43
2022-08-05T06:50:47.080Z,26.36
2022-08-05T06:51:51.550Z,26.43
2022-08-05T06:53:04.008Z,26.54
2022-08-05T06:54:18.139Z,26.47
2022-08-05T06:55:20.883Z,26.54
2022-08-05T06:56:26.292Z,26.57
2022-08-05T06:58:03.331Z,26.62
2022-08-05T06:58:50.001Z,26.68
2022-08-05T06:59:57.877Z,26.75
2022-08-05T07:01:01.764Z,26.75
2022-08-05T07:02:03.620Z,26.89
2022-08-05T07:03:05.111Z,27.08
2022-08-05T07:04:11.176Z,27.32
2022-08-05T07:05:18.926Z,27.48
2022-08-05T07:06:21.556Z,27.41
2022-08-05T07:07:24.194Z,27.50
2022-08-05T07:08:37.224Z,27.66
2022-08-05T07:09:43.384Z,27.80
2022-08-05T07:10:52.798Z,27.96
2022-08-05T07:11:55.055Z,27.99
2022-08-05T07:12:56.507Z,28.11
2022-08-05T07:14:00.025Z,28.11
2022-08-05T07:15:01.618Z,28.14
2022-08-05T07:16:04.685Z,28.26
2022-08-05T07:18:02.422Z,28.21
2022-08-05T07:18:29.928Z,28.25
2022-08-05T07:20:16.782Z,28.31
2022-08-05T07:20:53.620Z,28.39
2022-08-05T07:22:00.527Z,28.50
2022-08-05T07:23:02.868Z,28.56
2022-08-05T07:24:11.282Z,28.64
2022-08-05T07:25:54.219Z,28.61
2022-08-05T07:26:34.525Z,28.58
2022-08-05T07:27:58.635Z,28.60
2022-08-05T07:28:57.550Z,28.65
2022-08-05T07:30:25.508Z,28.75
2022-08-05T07:31:41.032Z,28.73
2022-08-05T07:32:44.164Z,28.65
2022-08-05T07:33:54.928Z,28.67
2022-08-05T07:35:01.421Z,28.71
2022-08-05T07:36:22.987Z,28.72
2022-08-05T07:37:28.978Z,28.77
2022-08-05T07:38:33.871Z,28.94
2022-08-05T07:40:25.889Z,29.12
2022-08-05T07:41:00.274Z,29.22
2022-08-05T07:42:14.449Z,29.29
2022-08-05T07:43:20.694Z,29.27
2022-08-05T07:44:22.643Z,29.30
2022-08-05T07:45:56.430Z,29.42
2022-08-05T07:46:48.201Z,29.53
2022-08-05T07:47:50.264Z,29.53
2022-08-05T07:49:01.587Z,29.57
2022-08-05T07:50:06.775Z,29.52
2022-08-05T07:51:08.685Z,29.58
2022-08-05T07:52:26.347Z,29.68
2022-08-05T07:53:36.912Z,29.78
2022-08-05T07:54:49.448Z,29.91
2022-08-05T07:56:05.813Z,29.97
2022-08-05T07:57:18.147Z,29.78
2022-08-05T07:58:57.530Z,29.62
2022-08-05T07:59:56.184Z,29.64
2022-08-05T08:00:57.684Z,29.64
2022-08-05T08:01:59.249Z,29.78
2022-08-05T08:03:14.655Z,29.93
2022-08-05T08:04:16.947Z,30.00
2022-08-05T08:05:26.366Z,30.05
2022-08-05T08:06:28.130Z,30.16
2022-08-05T08:07:39.691Z,30.20
2022-08-05T08:08:51.296Z,30.35
2022-08-05T08:09:55.011Z,30.44
2022-08-05T08:10:56.717Z,30.56
2022-08-05T08:12:00.146Z,30.59
2022-08-05T08:13:05.958Z,30.52
2022-08-05T08:14:07.454Z,30.53
2022-08-05T08:15:15.669Z,30.61
2022-08-05T08:16:35.296Z,30.71
2022-08-05T08:17:39.011Z,30.63
2022-08-05T08:18:49.900Z,30.59
2022-08-05T08:20:20.995Z,30.70
2022-08-05T08:21:15.942Z,30.90
2022-08-05T08:22:26.956Z,31.02
2022-08-05T08:24:02.580Z,31.06
2022-08-05T08:24:51.809Z,31.09
2022-08-05T08:25:59.714Z,31.15
2022-08-05T08:27:07.104Z,31.21
2022-08-05T08:28:18.289Z,31.30
2022-08-05T08:30:04.159Z,31.23
2022-08-05T08:30:47.742Z,31.28
2022-08-05T08:31:52.221Z,31.26
2022-08-05T08:32:53.728Z,31.25
2022-08-05T08:33:55.203Z,31.25
2022-08-05T08:34:57.584Z,31.37
2022-08-05T08:36:18.454Z,31.49
2022-08-05T08:37:21.026Z,31.58
2022-08-05T08:38:36.083Z,31.69
2022-08-05T08:39:44.284Z,31.71
2022-08-05T08:40:51.846Z,31.79
2022-08-05T08:41:59.926Z,31.86
2022-08-05T08:44:54.757Z,31.75
2022-08-05T08:45:24.181Z,31.81
2022-08-05T08:45:53.956Z,31.89
2022-08-05T08:46:56.428Z,32.00
2022-08-05T08:48:12.364Z,32.05
2022-08-05T08:50:06.048Z,31.99
2022-08-05T08:51:03.832Z,32.05
2022-08-05T08:52:24.174Z,32.05
2022-08-05T08:53:28.890Z,32.01
2022-08-05T08:54:30.734Z,31.92
2022-08-05T08:56:03.654Z,32.03
2022-08-05T08:56:56.677Z,32.18
2022-08-05T08:58:00.458Z,32.24
2022-08-05T08:59:03.197Z,32.27
2022-08-05T09:00:11.743Z,32.24
2022-08-05T09:01:19.019Z,32.30
2022-08-05T09:02:21.966Z,32.34
2022-08-05T09:03:39.439Z,32.38
2022-08-05T09:04:58.224Z,32.48
2022-08-05T09:06:12.110Z,32.54
2022-08-05T09:07:29.068Z,32.58
2022-08-05T09:08:41.384Z,32.51
2022-08-05T09:09:45.910Z,32.58
2022-08-05T09:10:51.836Z,32.53
2022-08-05T09:11:56.390Z,32.47
2022-08-05T09:13:05.381Z,32.56
2022-08-05T09:14:54.101Z,32.66
2022-08-05T09:15:28.768Z,32.76
2022-08-05T09:16:32.247Z,32.80
2022-08-05T09:17:42.782Z,32.87
2022-08-05T09:18:47.306Z,32.87
2022-08-05T09:20:01.388Z,32.92
2022-08-05T09:21:05.481Z,32.82
2022-08-05T09:22:23.456Z,32.78
2022-08-05T09:23:43.323Z,32.79
2022-08-05T09:25:00.740Z,32.75
2022-08-05T09:26:20.442Z,32.83
2022-08-05T09:28:04.810Z,32.80
2022-08-05T09:28:59.871Z,32.83
2022-08-05T09:30:06.309Z,32.91
2022-08-05T09:31:18.142Z,32.98
2022-08-05T09:32:46.024Z,33.04
2022-08-05T09:33:57.008Z,33.05
2022-08-05T09:34:58.544Z,33.01
2022-08-05T09:36:16.238Z,32.99
2022-08-05T09:38:17.324Z,32.91
2022-08-05T09:38:59.063Z,33.01
2022-08-05T09:40:00.645Z,33.01
2022-08-05T09:41:07.584Z,33.05
2022-08-05T09:42:13.484Z,33.16
2022-08-05T09:43:41.300Z,33.30
2022-08-05T09:44:50.578Z,33.30
2022-08-05T09:46:07.765Z,33.28
2022-08-05T09:47:21.956Z,33.41
2022-08-05T09:48:29.100Z,33.47
2022-08-05T09:49:54.875Z,33.56
2022-08-05T09:50:55.030Z,33.68
2022-08-05T09:51:56.821Z,33.55
2022-08-05T09:52:58.307Z,33.51
2022-08-05T09:54:00.685Z,33.47
2022-08-05T09:55:06.266Z,33.55
2022-08-05T09:56:31.221Z,33.59
2022-08-05T09:57:39.655Z,33.57
2022-08-05T09:58:56.635Z,33.65
2022-08-05T10:00:01.779Z,33.77
2022-08-05T10:01:15.437Z,33.81
2022-08-05T10:02:34.952Z,33.67
2022-08-05T10:03:38.640Z,33.58
2022-08-05T10:05:03.480Z,33.61
2022-08-05T10:06:15.532Z,33.71
2022-08-05T10:07:31.819Z,33.85
2022-08-05T10:08:38.782Z,34.08
2022-08-05T10:10:14.460Z,34.25
2022-08-05T10:11:17.715Z,34.25
2022-08-05T10:12:33.320Z,34.28
2022-08-05T10:13:47.835Z,34.36
2022-08-05T10:14:50.781Z,34.44
2022-08-05T10:15:56.255Z,34.61
2022-08-05T10:17:36.866Z,34.79
2022-08-05T10:18:36.419Z,34.75
2022-08-05T10:20:03.254Z,34.87
2022-08-05T10:21:06.342Z,35.11
2022-08-05T10:22:15.769Z,35.19
2022-08-05T10:24:00.132Z,35.16
2022-08-05T10:24:58.577Z,35.23
2022-08-05T10:26:03.391Z,35.26
2022-08-05T10:27:08.659Z,35.23
2022-08-05T10:28:17.260Z,35.26
2022-08-05T10:29:23.582Z,35.31
2022-08-05T10:32:50.555Z,35.35
2022-08-05T10:32:52.970Z,35.34
2022-08-05T10:33:31.010Z,35.30
2022-08-05T10:34:36.867Z,35.38
2022-08-05T10:35:44.259Z,35.44
2022-08-05T10:36:48.092Z,35.50
2022-08-05T10:37:51.599Z,35.34
2022-08-05T10:39:15.234Z,35.08
2022-08-05T10:40:34.947Z,35.04
2022-08-05T10:41:54.962Z,35.13
2022-08-05T10:43:07.264Z,35.14
2022-08-05T10:44:17.944Z,35.33
2022-08-05T10:45:40.408Z,35.45
2022-08-05T10:46:56.777Z,35.62
2022-08-05T10:48:31.654Z,35.73
2022-08-05T10:49:27.524Z,35.82
2022-08-05T10:51:03.406Z,35.95
2022-08-05T10:52:10.463Z,36.04
2022-08-05T10:53:38.180Z,36.11
2022-08-05T10:55:03.672Z,36.16
2022-08-05T10:56:21.333Z,36.07
2022-08-05T10:57:32.212Z,35.76
2022-08-05T10:58:48.546Z,35.55
2022-08-05T11:00:16.365Z,35.66
2022-08-05T11:01:55.033Z,35.79
2022-08-05T11:03:24.700Z,35.83
2022-08-05T11:04:28.069Z,35.67
2022-08-05T11:05:34.260Z,35.78
2022-08-05T11:06:56.432Z,36.01
2022-08-05T11:08:04.689Z,36.03
2022-08-05T11:09:24.499Z,35.90
2022-08-05T11:10:49.979Z,35.67
2022-08-05T11:12:01.988Z,35.49
2022-08-05T11:13:05.499Z,35.45
2022-08-05T11:14:07.585Z,35.45
2022-08-05T11:15:20.252Z,35.55
2022-08-05T11:16:34.031Z,35.52
2022-08-05T11:18:05.882Z,35.49
2022-08-05T11:20:16.516Z,35.29
2022-08-05T11:20:49.504Z,35.22
2022-08-05T11:21:52.239Z,35.35
2022-08-05T11:23:02.231Z,35.29
2022-08-05T11:24:29.974Z,35.23
2022-08-05T11:26:05.971Z,35.26
2022-08-05T11:27:50.781Z,35.20
2022-08-05T11:28:53.584Z,35.17
2022-08-05T11:30:01.013Z,35.16
2022-08-05T11:31:02.421Z,35.15
2022-08-05T11:32:24.343Z,35.09
2022-08-05T11:33:46.739Z,35.08
2022-08-05T11:34:51.969Z,35.16
2022-08-05T11:36:04.352Z,35.35
2022-08-05T11:38:28.001Z,35.54
2022-08-05T11:38:45.670Z,35.61
2022-08-05T11:40:00.580Z,35.73
2022-08-05T11:41:34.611Z,35.87
2022-08-05T11:42:28.063Z,35.92
2022-08-05T11:43:58.424Z,35.77
2022-08-05T11:45:00.699Z,35.76
2022-08-05T11:46:23.357Z,35.84
2022-08-05T11:47:48.746Z,35.71
2022-08-05T11:48:45.697Z,35.64
2022-08-05T11:49:51.231Z,35.62
2022-08-05T11:50:53.498Z,35.72
2022-08-05T11:51:57.711Z,35.79
2022-08-05T11:53:06.334Z,35.84
2022-08-05T11:54:13.952Z,35.83
2022-08-05T11:55:15.499Z,35.83
2022-08-05T11:56:17.252Z,35.90
2022-08-05T11:57:25.994Z,35.84
2022-08-05T11:58:36.819Z,35.78
2022-08-05T11:59:42.063Z,35.61
2022-08-05T12:01:01.653Z,35.61
2022-08-05T12:02:24.101Z,35.62
2022-08-05T12:03:31.918Z,35.67
2022-08-05T12:04:46.963Z,35.79
2022-08-05T12:06:02.974Z,35.85
2022-08-05T12:07:09.804Z,35.90
2022-08-05T12:08:11.879Z,35.86
2022-08-05T12:09:52.629Z,35.92
2022-08-05T12:10:48.787Z,35.92
2022-08-05T12:11:50.524Z,35.94
2022-08-05T12:12:59.457Z,35.87
2022-08-05T12:14:04.883Z,35.55
2022-08-05T12:15:06.694Z,35.55
2022-08-05T12:16:14.458Z,35.50
2022-08-05T12:18:04.010Z,35.51
2022-08-05T12:18:38.689Z,35.64
2022-08-05T12:20:26.825Z,35.74
2022-08-05T12:21:11.631Z,35.89
2022-08-05T12:22:20.134Z,35.82
2022-08-05T12:23:21.763Z,35.75
2022-08-05T12:24:24.645Z,35.73
2022-08-05T12:25:28.509Z,35.71
2022-08-05T12:26:51.148Z,35.71
2022-08-05T12:27:52.838Z,35.66
2022-08-05T12:28:54.865Z,35.68
2022-08-05T12:30:07.023Z,35.46
2022-08-05T12:31:09.042Z,35.44
2022-08-05T12:32:10.926Z,35.48
2022-08-05T12:33:27.538Z,35.48
2022-08-05T12:34:35.736Z,35.55
2022-08-05T12:35:39.892Z,35.63
2022-08-05T12:36:46.336Z,35.55
2022-08-05T12:37:47.859Z,35.62
2022-08-05T12:38:50.405Z,35.76
2022-08-05T12:39:53.785Z,35.83
2022-08-05T12:40:57.355Z,35.88
2022-08-05T12:41:59.581Z,35.78
2022-08-05T12:43:01.074Z,35.75
2022-08-05T12:44:14.517Z,35.79
2022-08-05T12:45:49.583Z,35.79
2022-08-05T12:46:53.686Z,35.78
2022-08-05T12:48:01.735Z,35.79
2022-08-05T12:49:16.828Z,36.00
2022-08-05T12:50:20.840Z,35.99
2022-08-05T12:52:14.264Z,35.95
2022-08-05T12:52:56.067Z,35.87
2022-08-05T12:54:03.679Z,35.72
2022-08-05T12:55:22.602Z,35.66
2022-08-05T12:56:35.430Z,35.67
2022-08-05T12:58:38.717Z,35.76
2022-08-05T12:59:21.089Z,35.70
2022-08-05T13:02:02.757Z,35.76
2022-08-05T13:02:06.933Z,35.80
2022-08-05T13:03:08.583Z,35.87
2022-08-05T13:04:20.839Z,35.94
2022-08-05T13:05:24.606Z,36.01
2022-08-05T13:06:51.566Z,35.96
2022-08-05T13:07:59.826Z,36.06
2022-08-05T13:09:14.037Z,36.08
2022-08-05T13:10:31.893Z,35.97
2022-08-05T13:12:02.316Z,35.79
2022-08-05T13:12:58.082Z,35.57
2022-08-05T13:14:06.133Z,35.52
2022-08-05T13:15:17.225Z,35.49
2022-08-05T13:16:28.020Z,35.47
2022-08-05T13:17:41.810Z,35.55
2022-08-05T13:18:57.875Z,35.65
2022-08-05T13:20:04.512Z,35.66
2022-08-05T13:21:08.392Z,35.67
2022-08-05T13:22:12.147Z,35.76
2022-08-05T13:23:13.716Z,35.80
2022-08-05T13:24:27.534Z,35.89
2022-08-05T13:25:52.486Z,36.06
2022-08-05T13:27:00.666Z,36.09
2022-08-05T13:28:03.149Z,36.12
2022-08-05T13:29:05.367Z,36.02
2022-08-05T13:30:34.570Z,35.89
2022-08-05T13:32:03.473Z,35.70
2022-08-05T13:32:53.603Z,35.78
2022-08-05T13:34:22.074Z,35.88
2022-08-05T13:35:22.212Z,35.92
2022-08-05T13:36:27.821Z,35.83
2022-08-05T13:37:34.426Z,35.81
2022-08-05T13:38:41.943Z,35.74
2022-08-05T13:40:13.569Z,35.62
2022-08-05T13:41:06.156Z,35.58
2022-08-05T13:42:15.020Z,35.58
2022-08-05T13:43:21.974Z,35.61
2022-08-05T13:44:23.839Z,35.66
2022-08-05T13:45:31.010Z,35.58
2022-08-05T13:48:09.455Z,35.39
2022-08-05T13:49:22.920Z,35.49
2022-08-05T13:50:24.936Z,35.50
2022-08-05T13:51:36.686Z,35.49
2022-08-05T13:52:43.251Z,35.51
2022-08-05T13:53:48.259Z,35.48
2022-08-05T13:54:53.615Z,35.48
2022-08-05T13:56:00.193Z,35.54
2022-08-05T13:57:03.588Z,35.56
2022-08-05T13:58:07.774Z,35.54
2022-08-05T13:59:20.506Z,35.61
2022-08-05T14:00:27.615Z,35.70
2022-08-05T14:01:44.177Z,35.70
2022-08-05T14:02:50.977Z,35.59
2022-08-05T14:03:52.641Z,35.64
2022-08-05T14:04:54.112Z,35.57
2022-08-05T14:06:25.160Z,35.59
2022-08-05T14:07:25.577Z,35.57
2022-08-05T14:08:43.580Z,35.55
2022-08-05T14:09:46.574Z,35.49
2022-08-05T14:10:48.437Z,35.48
2022-08-05T14:12:03.965Z,35.38
2022-08-05T14:13:06.664Z,35.29
2022-08-05T14:14:08.572Z,35.42
2022-08-05T14:16:08.430Z,35.50
2022-08-05T14:16:33.807Z,35.63
2022-08-05T14:17:36.462Z,35.72
2022-08-05T14:18:37.999Z,35.81
2022-08-05T14:19:54.216Z,35.85
2022-08-05T14:20:58.311Z,35.77
2022-08-05T14:22:10.278Z,35.69
2022-08-05T14:23:13.747Z,35.65
2022-08-05T14:24:19.546Z,35.49
2022-08-05T14:25:22.414Z,35.33
2022-08-05T14:26:36.752Z,35.27
2022-08-05T14:27:47.479Z,35.27
2022-08-05T14:28:51.843Z,35.23
2022-08-05T14:29:54.347Z,35.21
2022-08-05T14:30:59.165Z,35.25
2022-08-05T14:32:13.739Z,35.35
2022-08-05T14:33:22.831Z,35.36
2022-08-05T14:34:24.740Z,35.26
2022-08-05T14:35:37.327Z,35.29
2022-08-05T14:36:49.506Z,35.37
2022-08-05T14:37:55.027Z,35.49
2022-08-05T14:38:57.154Z,35.57
2022-08-05T14:39:59.264Z,35.72
2022-08-05T14:41:04.466Z,35.86
2022-08-05T14:42:29.255Z,35.86
2022-08-05T14:44:02.393Z,35.76
2022-08-05T14:44:50.825Z,35.55
2022-08-05T14:45:52.270Z,35.52
2022-08-05T14:46:55.098Z,35.56
2022-08-05T14:48:05.783Z,35.61
2022-08-05T14:49:10.118Z,35.62
2022-08-05T14:50:18.468Z,35.55
2022-08-05T14:51:20.848Z,35.39
2022-08-05T14:52:50.400Z,35.49
2022-08-05T14:53:44.066Z,35.47
2022-08-05T14:54:52.903Z,35.41
2022-08-05T14:55:54.804Z,35.37
2022-08-05T14:56:58.152Z,35.41
2022-08-05T14:57:59.606Z,35.50
2022-08-05T14:59:01.516Z,35.61
2022-08-05T15:00:05.843Z,35.69
2022-08-05T15:01:16.255Z,35.74
2022-08-05T15:02:19.039Z,35.80
2022-08-05T15:03:22.938Z,35.81
2022-08-05T15:04:24.613Z,35.78
2022-08-05T15:06:12.869Z,35.69
2022-08-05T15:06:52.539Z,35.73